Healing, United Kingdom
Current Conditions -  °F | °C
As of 2:50 PM on Monday 22 Dec 2014 (Local Time) from EGNJ Reporting Station
Light Rain Light Rain  
Wind Chill: 57°   Ceiling: 2700
Heat Index: 57°   Visibility: 6mi
Dew Point: 50°   Wind: 23mph
Humidity: 77%   Direction: 220°SW
Pressure: 29.77"   Gusts: NA
Location:  53.58°N, 0.16°W
Report Text: EGNJ 221450Z 22020KT 9999 -RA BKN027 14/10 Q1008
Loading
Personal Weather Stations






























Interactive Weather Map New forecast layout! Learn more

10-Day Weather Forecast

Advertisements
Track Severe Weather on mobile